Terminal Aerodrome Forecast
Issued by NWS

Home | Current Version | Previous Version | Graphics & Text | Print | Product List | Glossary On
Versions: 1 2 3 4 5 6 7 8 9 10 11 12 13 14 15 16 17 18 19
000
FTUS43 KABR 272300
TAFATY
TAF
KATY 272338Z 2800/2824 16011KT P6SM SCT250
     FM280900 16008KT 3SM BR SCT250
     FM281200 17005KT 1SM BR SCT250
     FM281700 34007KT P6SM SCT150
     FM282200 33017G25KT P6SM SCT035=

USA.gov is the U.S. government's official web portal to all federal, state and local government web resources and services.